createdAt,value
2018-12-26T00:00:37.216Z,71.24
2018-12-26T00:01:37.256Z,70.93
2018-12-26T00:02:37.180Z,70.72
2018-12-26T00:03:37.175Z,71.55
2018-12-26T00:04:37.155Z,71.44
2018-12-26T00:05:37.184Z,70.93
2018-12-26T00:06:37.132Z,71.24
2018-12-26T00:07:37.121Z,71.24
2018-12-26T00:08:37.127Z,71.14
2018-12-26T00:09:37.125Z,71.03
2018-12-26T00:10:37.088Z,70.52
2018-12-26T00:11:37.105Z,70.21
2018-12-26T00:12:37.074Z,71.44
2018-12-26T00:13:37.052Z,71.44
2018-12-26T00:14:37.071Z,71.24
2018-12-26T00:15:37.030Z,70.93
2018-12-26T00:16:37.026Z,70.62
2018-12-26T00:17:37.015Z,70.31
2018-12-26T00:18:37.026Z,70.93
2018-12-26T00:19:37.049Z,70.83
2018-12-26T00:20:36.988Z,71.75
2018-12-26T00:21:36.992Z,71.44
2018-12-26T00:22:37.009Z,70.93
2018-12-26T00:23:36.967Z,71.14
2018-12-26T00:24:36.942Z,71.14
2018-12-26T00:25:36.930Z,70.72
2018-12-26T00:26:36.941Z,70.93
2018-12-26T00:27:36.919Z,71.24
2018-12-26T00:28:36.929Z,70.93
2018-12-26T00:29:36.888Z,71.82
2018-12-26T00:30:36.878Z,71.62
2018-12-26T00:31:36.864Z,71.34
2018-12-26T00:32:36.871Z,71.44
2018-12-26T00:33:36.849Z,70.93
2018-12-26T00:34:36.831Z,70.83
2018-12-26T00:35:36.833Z,71.24
2018-12-26T00:36:36.816Z,71.62
2018-12-26T00:37:36.807Z,70.59
2018-12-26T00:38:36.803Z,70.59
2018-12-26T00:39:36.809Z,71.34
2018-12-26T00:40:36.768Z,71.34
2018-12-26T00:41:36.836Z,71.75
2018-12-26T00:42:36.772Z,71.75
2018-12-26T00:43:36.738Z,71.03
2018-12-26T00:44:36.721Z,71.24
2018-12-26T00:45:37.709Z,71.55
2018-12-26T00:46:36.700Z,71.44
2018-12-26T00:47:36.705Z,71.03
2018-12-26T00:48:36.680Z,71.20
2018-12-26T00:49:36.680Z,72.34
2018-12-26T00:50:36.661Z,71.65
2018-12-26T00:51:36.652Z,71.24
2018-12-26T00:52:36.664Z,71.34
2018-12-26T00:53:36.635Z,70.83
2018-12-26T00:54:37.249Z,71.75
2018-12-26T00:55:36.602Z,71.34
2018-12-26T00:56:36.594Z,71.96
2018-12-26T00:57:36.584Z,71.92
2018-12-26T00:58:36.599Z,71.96
2018-12-26T00:59:36.582Z,71.65
2018-12-26T01:00:36.553Z,71.24
2018-12-26T01:01:36.531Z,71.55
2018-12-26T01:02:44.979Z,72.27
2018-12-26T01:03:45.456Z,72.06
2018-12-26T01:04:44.941Z,71.20
2018-12-26T01:05:44.418Z,71.00
2018-12-26T01:06:43.883Z,71.82
2018-12-26T01:07:36.475Z,71.31
2018-12-26T01:08:36.464Z,71.96
2018-12-26T01:09:36.457Z,71.65
2018-12-26T01:10:36.445Z,71.41
2018-12-26T01:11:36.444Z,71.34
2018-12-26T01:12:36.443Z,71.92
2018-12-26T01:13:36.933Z,71.92
2018-12-26T01:14:36.413Z,72.03
2018-12-26T01:15:36.413Z,71.72
2018-12-26T01:16:36.388Z,71.24
2018-12-26T01:17:36.362Z,71.31
2018-12-26T01:18:36.935Z,71.82
2018-12-26T01:19:36.532Z,72.13
2018-12-26T01:20:36.414Z,71.86
2018-12-26T01:21:36.318Z,72.37
2018-12-26T01:22:36.950Z,72.85
2018-12-26T01:23:37.301Z,72.24
2018-12-26T01:24:36.288Z,72.24
2018-12-26T01:25:36.283Z,71.44
2018-12-26T01:26:36.273Z,71.62
2018-12-26T01:27:36.924Z,71.86
2018-12-26T01:28:36.260Z,71.82
2018-12-26T01:29:36.240Z,72.06
2018-12-26T01:30:36.226Z,71.96
2018-12-26T01:31:36.260Z,71.72
2018-12-26T01:32:36.206Z,71.92
2018-12-26T01:33:36.879Z,73.50
2018-12-26T01:34:36.180Z,71.82
2018-12-26T01:35:36.174Z,71.65
2018-12-26T01:36:36.165Z,71.82
2018-12-26T01:37:36.152Z,72.75
2018-12-26T01:38:36.139Z,72.03
2018-12-26T01:39:36.128Z,71.62
2018-12-26T01:40:36.129Z,71.00
2018-12-26T01:41:36.110Z,72.54
2018-12-26T01:42:37.893Z,71.72
2018-12-26T01:43:36.107Z,71.51
2018-12-26T01:44:36.080Z,71.62
2018-12-26T01:45:36.095Z,71.82
2018-12-26T01:46:36.056Z,71.82
2018-12-26T01:47:36.069Z,71.82
2018-12-26T01:48:36.061Z,72.03
2018-12-26T01:49:36.017Z,71.92
2018-12-26T01:51:28.044Z,72.03
2018-12-26T01:52:28.012Z,72.24
2018-12-26T01:53:27.999Z,71.31
2018-12-26T01:54:27.991Z,71.31
2018-12-26T01:55:27.979Z,71.51
2018-12-26T01:56:28.627Z,72.16
2018-12-26T01:57:27.956Z,71.31
2018-12-26T01:58:28.962Z,71.72
2018-12-26T01:59:27.933Z,71.65
2018-12-26T02:00:27.922Z,71.75
2018-12-26T02:01:27.931Z,71.92
2018-12-26T02:02:27.901Z,72.03
2018-12-26T02:03:27.944Z,71.20
2018-12-26T02:04:27.894Z,71.72
2018-12-26T02:05:27.872Z,71.92
2018-12-26T02:06:27.873Z,71.92
2018-12-26T02:07:27.850Z,72.03
2018-12-26T02:08:27.834Z,71.20
2018-12-26T02:09:27.825Z,71.62
2018-12-26T02:10:27.819Z,71.20
2018-12-26T02:11:27.804Z,71.72
2018-12-26T02:12:27.787Z,71.72
2018-12-26T02:13:27.789Z,72.06
2018-12-26T02:14:27.758Z,71.44
2018-12-26T02:15:27.758Z,71.55
2018-12-26T02:16:27.754Z,71.96
2018-12-26T02:17:27.760Z,71.96
2018-12-26T02:18:27.738Z,71.44
2018-12-26T02:19:27.714Z,71.96
2018-12-26T02:20:27.706Z,72.68
2018-12-26T02:21:27.691Z,71.92
2018-12-26T02:22:27.695Z,71.75
2018-12-26T02:23:27.669Z,72.47
2018-12-26T02:24:28.631Z,71.55
2018-12-26T02:25:27.650Z,71.44
2018-12-26T02:26:36.273Z,71.55
2018-12-26T02:27:28.650Z,71.41
2018-12-26T02:28:27.609Z,71.03
2018-12-26T02:29:30.115Z,72.03
2018-12-26T02:30:28.153Z,71.14
2018-12-26T02:31:32.120Z,71.65
2018-12-26T02:32:27.582Z,71.86
2018-12-26T02:33:27.565Z,71.34
2018-12-26T02:34:29.118Z,70.83
2018-12-26T02:36:20.868Z,70.93
2018-12-26T02:37:20.869Z,70.93
2018-12-26T02:38:20.846Z,71.03
2018-12-26T02:39:21.836Z,71.99
2018-12-26T02:40:22.622Z,71.69
2018-12-26T02:41:20.811Z,71.48
2018-12-26T02:42:21.819Z,71.69
2018-12-26T02:43:21.623Z,71.58
2018-12-26T02:44:21.641Z,71.78
2018-12-26T02:45:20.767Z,71.58
2018-12-26T02:46:21.648Z,71.99
2018-12-26T02:47:21.660Z,71.92
2018-12-26T02:48:23.627Z,71.58
2018-12-26T02:49:21.725Z,72.23
2018-12-26T02:50:20.722Z,72.13
2018-12-26T02:52:13.609Z,72.23
2018-12-26T02:53:13.591Z,72.23
2018-12-26T02:54:21.322Z,72.09
2018-12-26T02:55:15.391Z,72.23
2018-12-26T02:56:15.282Z,72.41
2018-12-26T02:57:13.586Z,71.82
2018-12-26T02:58:13.527Z,72.54
2018-12-26T02:59:14.529Z,72.54
2018-12-26T03:00:14.510Z,72.96
2018-12-26T03:01:14.515Z,72.61
2018-12-26T03:02:13.491Z,72.81
2018-12-26T03:03:13.485Z,72.71
2018-12-26T03:04:13.464Z,72.61
2018-12-26T03:05:13.459Z,72.20
2018-12-26T03:06:14.305Z,72.81
2018-12-26T03:07:13.441Z,74.36
2018-12-26T03:08:13.423Z,74.33
2018-12-26T03:09:14.279Z,76.28
2018-12-26T03:10:13.408Z,74.43
2018-12-26T03:11:13.394Z,74.74
2018-12-26T03:12:13.402Z,73.98
2018-12-26T03:13:14.338Z,72.16
2018-12-26T03:14:13.361Z,72.78
2018-12-26T03:15:14.363Z,73.16
2018-12-26T03:17:05.621Z,73.78
2018-12-26T03:18:05.626Z,73.57
2018-12-26T03:19:05.600Z,74.50
2018-12-26T03:20:05.599Z,74.05
2018-12-26T03:21:05.580Z,72.41
2018-12-26T03:22:06.585Z,71.79
2018-12-26T03:23:07.477Z,71.69
2018-12-26T03:24:05.554Z,72.41
2018-12-26T03:25:05.550Z,71.79
2018-12-26T03:26:05.533Z,71.48
2018-12-26T03:27:05.513Z,71.89
2018-12-26T03:28:06.502Z,71.79
2018-12-26T03:29:05.492Z,71.79
2018-12-26T03:30:05.613Z,71.62
2018-12-26T03:31:06.464Z,71.31
2018-12-26T03:32:10.429Z,72.30
2018-12-26T03:33:06.451Z,72.09
2018-12-26T03:34:05.947Z,72.61
2018-12-26T03:35:05.449Z,71.79
2018-12-26T03:36:05.975Z,71.89
2018-12-26T03:37:05.401Z,72.61
2018-12-26T03:38:05.949Z,70.76
2018-12-26T03:39:05.959Z,71.79
2018-12-26T03:40:05.950Z,71.17
2018-12-26T03:41:05.357Z,71.28
2018-12-26T03:42:06.359Z,71.37
2018-12-26T03:43:05.949Z,72.20
2018-12-26T03:44:05.390Z,71.92
2018-12-26T03:45:05.976Z,72.44
2018-12-26T03:46:06.316Z,72.41
2018-12-26T03:47:05.320Z,72.00
2018-12-26T03:48:05.280Z,71.58
2018-12-26T03:49:05.972Z,71.28
2018-12-26T03:50:05.265Z,71.10
2018-12-26T03:51:05.950Z,72.00
2018-12-26T03:52:05.233Z,72.34
2018-12-26T03:53:05.236Z,72.30
2018-12-26T03:54:05.228Z,71.89
2018-12-26T03:55:05.221Z,71.89
2018-12-26T03:56:05.933Z,72.09
2018-12-26T03:57:06.445Z,71.79
2018-12-26T03:58:05.170Z,72.00
2018-12-26T03:59:05.983Z,72.41
2018-12-26T04:00:05.170Z,71.69
2018-12-26T04:01:05.169Z,71.48
2018-12-26T04:02:05.127Z,71.17
2018-12-26T04:03:05.120Z,71.37
2018-12-26T04:04:05.115Z,71.28
2018-12-26T04:05:05.144Z,72.20
2018-12-26T04:06:05.093Z,71.79
2018-12-26T04:07:05.958Z,71.69
2018-12-26T04:08:05.071Z,72.72
2018-12-26T04:09:05.049Z,71.89
2018-12-26T04:10:05.101Z,71.28
2018-12-26T04:11:05.972Z,71.28
2018-12-26T04:12:05.040Z,71.37
2018-12-26T04:13:05.018Z,72.00
2018-12-26T04:14:05.011Z,71.55
2018-12-26T04:15:05.000Z,71.58
2018-12-26T04:16:05.960Z,71.37
2018-12-26T04:17:04.975Z,72.41
2018-12-26T04:18:04.962Z,72.20
2018-12-26T04:19:04.947Z,72.20
2018-12-26T04:20:04.936Z,71.48
2018-12-26T04:21:04.931Z,71.79
2018-12-26T04:22:04.927Z,71.58
2018-12-26T04:23:04.906Z,72.30
2018-12-26T04:24:04.910Z,72.61
2018-12-26T04:25:04.882Z,72.61
2018-12-26T04:26:04.908Z,72.51
2018-12-26T04:27:04.869Z,71.28
2018-12-26T04:28:04.850Z,72.20
2018-12-26T04:29:04.857Z,72.00
2018-12-26T04:30:04.830Z,72.30
2018-12-26T04:31:04.817Z,72.81
2018-12-26T04:32:04.807Z,72.41
2018-12-26T04:33:04.809Z,73.33
2018-12-26T04:34:04.796Z,75.04
2018-12-26T04:35:04.780Z,73.81
2018-12-26T04:36:04.776Z,74.12
2018-12-26T04:37:04.752Z,72.17
2018-12-26T04:38:04.747Z,72.27
2018-12-26T04:39:04.783Z,71.86
2018-12-26T04:40:04.745Z,71.86
2018-12-26T04:41:04.713Z,72.06
2018-12-26T04:42:04.702Z,72.06
2018-12-26T04:43:04.703Z,71.75
2018-12-26T04:44:04.680Z,73.19
2018-12-26T04:45:04.675Z,72.17
2018-12-26T04:46:05.421Z,71.86
2018-12-26T04:47:04.646Z,72.58
2018-12-26T04:48:04.629Z,72.27
2018-12-26T04:49:04.652Z,71.75
2018-12-26T04:50:04.633Z,72.06
2018-12-26T04:51:04.600Z,73.61
2018-12-26T04:52:04.596Z,72.68
2018-12-26T04:53:04.580Z,72.51
2018-12-26T04:54:04.617Z,72.38
2018-12-26T04:55:04.564Z,73.13
2018-12-26T04:56:04.549Z,73.33
2018-12-26T04:57:04.545Z,73.33
2018-12-26T04:58:04.527Z,73.74
2018-12-26T04:59:04.515Z,73.64
2018-12-26T05:00:04.508Z,74.19
2018-12-26T05:01:04.494Z,73.74
2018-12-26T05:02:04.480Z,73.64
2018-12-26T05:03:06.456Z,74.19
2018-12-26T05:04:04.476Z,75.22
2018-12-26T05:05:05.702Z,75.63
2018-12-26T05:06:04.443Z,75.08
2018-12-26T05:07:04.421Z,73.88
2018-12-26T05:08:04.415Z,73.78
2018-12-26T05:09:04.411Z,73.88
2018-12-26T05:10:04.423Z,74.50
2018-12-26T05:11:04.389Z,74.19
2018-12-26T05:12:05.723Z,75.73
2018-12-26T05:13:04.365Z,74.40
2018-12-26T05:14:04.360Z,74.40
2018-12-26T05:15:04.359Z,74.29
2018-12-26T05:16:04.328Z,74.50
2018-12-26T05:17:04.339Z,74.08
2018-12-26T05:18:04.310Z,74.60
2018-12-26T05:19:04.307Z,74.26
2018-12-26T05:20:04.293Z,74.40
2018-12-26T05:21:04.289Z,74.70
2018-12-26T05:22:11.786Z,74.50
2018-12-26T05:23:13.017Z,73.57
2018-12-26T05:24:04.245Z,75.42
2018-12-26T05:25:04.229Z,74.08
2018-12-26T05:26:04.255Z,73.88
2018-12-26T05:27:04.225Z,74.08
2018-12-26T05:28:11.657Z,73.78
2018-12-26T05:29:05.072Z,73.78
2018-12-26T05:30:04.191Z,74.29
2018-12-26T05:31:04.169Z,74.19
2018-12-26T05:32:04.170Z,73.98
2018-12-26T05:33:04.139Z,74.02
2018-12-26T05:34:04.159Z,74.80
2018-12-26T05:35:04.138Z,74.43
2018-12-26T05:36:04.115Z,74.40
2018-12-26T05:37:04.100Z,75.05
2018-12-26T05:38:04.117Z,75.05
2018-12-26T05:39:04.078Z,75.25
2018-12-26T05:40:05.579Z,75.25
2018-12-26T05:41:04.102Z,76.93
2018-12-26T05:42:04.054Z,77.00
2018-12-26T05:43:04.039Z,75.90
2018-12-26T05:44:04.054Z,76.93
2018-12-26T05:45:04.025Z,76.01
2018-12-26T05:46:04.009Z,76.21
2018-12-26T05:47:03.998Z,76.93
2018-12-26T05:48:03.976Z,77.14
2018-12-26T05:49:04.557Z,77.04
2018-12-26T05:50:03.985Z,77.45
2018-12-26T05:51:03.959Z,77.45
2018-12-26T05:52:03.987Z,77.76
2018-12-26T05:53:03.973Z,77.45
2018-12-26T05:54:03.929Z,77.25
2018-12-26T05:55:03.914Z,77.04
2018-12-26T05:56:03.906Z,77.14
2018-12-26T05:57:03.890Z,77.35
2018-12-26T05:58:03.895Z,77.04
2018-12-26T05:59:03.865Z,77.04
2018-12-26T06:00:03.853Z,77.55
2018-12-26T06:01:03.844Z,77.76
2018-12-26T06:02:03.847Z,77.86
2018-12-26T06:03:03.820Z,77.69
2018-12-26T06:04:03.836Z,77.55
2018-12-26T06:05:03.865Z,78.07
2018-12-26T06:06:03.788Z,77.97
2018-12-26T06:07:03.788Z,78.38
2018-12-26T06:08:03.763Z,77.69
2018-12-26T06:09:03.758Z,78.48
2018-12-26T06:10:03.761Z,78.83
2018-12-26T06:11:03.731Z,78.62
2018-12-26T06:12:04.765Z,79.03
2018-12-26T06:13:03.726Z,78.52
2018-12-26T06:14:05.597Z,78.72
2018-12-26T06:15:03.702Z,78.83
2018-12-26T06:16:05.648Z,79.14
2018-12-26T06:17:03.666Z,78.83
2018-12-26T06:18:03.659Z,78.52
2018-12-26T06:19:06.646Z,79.65
2018-12-26T06:20:05.584Z,79.03
2018-12-26T06:21:03.625Z,80.06
2018-12-26T06:22:04.624Z,79.69
2018-12-26T06:23:03.635Z,79.34
2018-12-26T06:24:03.597Z,78.86
2018-12-26T06:25:03.592Z,79.38
2018-12-26T06:26:03.586Z,79.69
2018-12-26T06:27:04.076Z,79.79
2018-12-26T06:28:03.546Z,79.58
2018-12-26T06:29:03.535Z,79.03
2018-12-26T06:30:03.535Z,79.55
2018-12-26T06:31:03.518Z,81.09
2018-12-26T06:32:03.518Z,80.41
2018-12-26T06:33:03.498Z,80.99
2018-12-26T06:34:03.491Z,79.27
2018-12-26T06:35:03.494Z,80.93
2018-12-26T06:36:03.467Z,81.34
2018-12-26T06:37:03.451Z,80.16
2018-12-26T06:38:03.455Z,80.89
2018-12-26T06:39:03.432Z,79.86
2018-12-26T06:40:03.446Z,80.41
2018-12-26T06:41:03.425Z,80.47
2018-12-26T06:42:03.422Z,79.65
2018-12-26T06:43:03.387Z,80.20
2018-12-26T06:44:03.373Z,80.99
2018-12-26T06:45:03.378Z,79.90
2018-12-26T06:46:03.355Z,80.10
2018-12-26T06:47:03.332Z,80.82
2018-12-26T06:48:03.334Z,81.20
2018-12-26T06:49:03.335Z,81.03
2018-12-26T06:50:03.313Z,80.51
2018-12-26T06:51:03.304Z,81.03
2018-12-26T06:52:03.287Z,81.09
2018-12-26T06:53:04.086Z,80.62
2018-12-26T06:54:03.277Z,80.93
2018-12-26T06:55:03.258Z,80.82
2018-12-26T06:56:03.254Z,80.62
2018-12-26T06:57:03.239Z,81.34
2018-12-26T06:58:03.255Z,81.44
2018-12-26T06:59:03.225Z,81.44
2018-12-26T07:00:03.207Z,81.34
2018-12-26T07:01:03.194Z,81.34
2018-12-26T07:02:03.184Z,81.96
2018-12-26T07:03:03.173Z,81.85
2018-12-26T07:04:03.197Z,81.23
2018-12-26T07:05:03.149Z,80.93
2018-12-26T07:06:03.134Z,81.13
2018-12-26T07:07:03.132Z,81.20
2018-12-26T07:08:03.117Z,81.34
2018-12-26T07:09:03.145Z,81.44
2018-12-26T07:10:03.099Z,81.34
2018-12-26T07:11:03.088Z,81.81
2018-12-26T07:12:03.120Z,80.68
2018-12-26T07:13:03.594Z,81.30
2018-12-26T07:14:03.048Z,81.23
2018-12-26T07:15:03.049Z,81.34
2018-12-26T07:16:03.054Z,80.99
2018-12-26T07:17:03.051Z,81.34
2018-12-26T07:18:03.006Z,81.40
2018-12-26T07:19:03.000Z,81.54
2018-12-26T07:20:03.027Z,81.13
2018-12-26T07:21:03.079Z,81.23
2018-12-26T07:22:03.063Z,81.03
2018-12-26T07:23:03.953Z,80.82
2018-12-26T07:24:03.603Z,80.82
2018-12-26T07:25:07.897Z,81.23
2018-12-26T07:26:02.923Z,81.03
2018-12-26T07:27:03.588Z,80.30
2018-12-26T07:28:08.948Z,81.44
2018-12-26T07:29:03.890Z,81.40
2018-12-26T07:30:02.881Z,81.44
2018-12-26T07:31:02.870Z,81.30
2018-12-26T07:32:03.557Z,80.89
2018-12-26T07:33:02.851Z,80.30
2018-12-26T07:34:03.459Z,80.99
2018-12-26T07:35:02.825Z,81.23
2018-12-26T07:36:02.808Z,81.03
2018-12-26T07:37:03.793Z,80.20
2018-12-26T07:38:02.796Z,80.99
2018-12-26T07:39:02.780Z,80.93
2018-12-26T07:40:02.766Z,81.34
2018-12-26T07:41:02.769Z,81.34
2018-12-26T07:42:02.767Z,80.82
2018-12-26T07:43:02.738Z,82.06
2018-12-26T07:44:02.737Z,81.44
2018-12-26T07:45:04.579Z,81.34
2018-12-26T07:46:04.584Z,81.34
2018-12-26T07:47:03.601Z,81.81
2018-12-26T07:48:02.705Z,81.30
2018-12-26T07:49:02.715Z,81.34
2018-12-26T07:50:02.666Z,81.81
2018-12-26T07:51:02.656Z,81.20
2018-12-26T07:52:02.647Z,81.40
2018-12-26T07:53:02.635Z,81.44
2018-12-26T07:54:02.609Z,81.40
2018-12-26T07:55:02.613Z,81.09
2018-12-26T07:56:02.593Z,81.44
2018-12-26T07:57:02.586Z,81.23
2018-12-26T07:58:02.609Z,81.85
2018-12-26T07:59:02.563Z,82.26
2018-12-26T08:00:03.091Z,82.06
2018-12-26T08:01:03.164Z,82.26
2018-12-26T08:02:02.531Z,81.44
2018-12-26T08:03:02.527Z,82.57
2018-12-26T08:04:02.537Z,82.37
2018-12-26T08:05:02.497Z,81.65
2018-12-26T08:06:02.497Z,82.26
2018-12-26T08:07:02.490Z,82.57
2018-12-26T08:08:02.475Z,82.78
2018-12-26T08:09:02.478Z,82.37
2018-12-26T08:10:03.081Z,82.98
2018-12-26T08:11:02.448Z,82.16
2018-12-26T08:12:02.425Z,82.68
2018-12-26T08:13:02.420Z,82.78
2018-12-26T08:14:02.400Z,82.57
2018-12-26T08:15:10.493Z,82.98
2018-12-26T08:17:13.221Z,83.29
2018-12-26T08:18:13.202Z,82.78
2018-12-26T08:19:13.190Z,83.50
2018-12-26T08:20:13.177Z,83.81
2018-12-26T08:21:13.184Z,83.50
2018-12-26T08:22:13.170Z,83.09
2018-12-26T08:23:13.151Z,82.98
2018-12-26T08:24:13.127Z,82.68
2018-12-26T08:25:14.339Z,83.81
2018-12-26T08:26:14.873Z,83.50
2018-12-26T08:27:15.883Z,83.26
2018-12-26T08:28:13.088Z,83.09
2018-12-26T08:29:14.835Z,83.50
2018-12-26T08:30:13.081Z,82.57
2018-12-26T08:31:14.869Z,83.29
2018-12-26T08:32:17.026Z,83.40
2018-12-26T08:33:13.293Z,83.61
2018-12-26T08:34:14.282Z,83.81
2018-12-26T08:35:13.197Z,83.91
2018-12-26T08:36:22.035Z,83.71
2018-12-26T08:37:16.026Z,83.81
2018-12-26T08:38:13.263Z,83.71
2018-12-26T08:39:13.169Z,84.43
2018-12-26T08:40:16.116Z,84.01
2018-12-26T08:41:18.706Z,83.81
2018-12-26T08:42:14.119Z,83.98
2018-12-26T08:43:15.156Z,84.19
2018-12-26T08:44:13.043Z,83.81
2018-12-26T08:45:13.064Z,84.59
2018-12-26T08:46:13.092Z,83.91
2018-12-26T08:47:13.845Z,84.64
2018-12-26T08:48:13.114Z,84.22
2018-12-26T08:49:14.713Z,84.74
2018-12-26T08:50:13.152Z,84.59
2018-12-26T08:51:17.705Z,84.39
2018-12-26T08:52:14.514Z,83.81
2018-12-26T08:53:38.702Z,84.19
2018-12-26T08:54:13.115Z,84.53
2018-12-26T08:55:38.425Z,83.87
2018-12-26T08:56:21.718Z,83.87
2018-12-26T08:57:12.837Z,83.81
2018-12-26T08:58:36.475Z,83.77
2018-12-26T08:59:18.046Z,83.81
2018-12-26T09:00:12.747Z,84.43
2018-12-26T09:01:12.749Z,84.64
2018-12-26T09:02:12.756Z,84.19
2018-12-26T09:03:13.388Z,84.59
2018-12-26T09:04:14.385Z,84.29
2018-12-26T09:05:12.681Z,83.98
2018-12-26T09:06:15.349Z,84.19
2018-12-26T09:07:14.878Z,84.08
2018-12-26T09:08:14.375Z,83.77
2018-12-26T09:09:13.384Z,83.77
2018-12-26T09:10:13.338Z,83.77
2018-12-26T09:11:12.631Z,83.98
2018-12-26T09:12:15.400Z,83.77
2018-12-26T09:13:15.398Z,84.08
2018-12-26T09:14:12.644Z,83.56
2018-12-26T09:15:13.915Z,83.71
2018-12-26T09:16:12.654Z,83.77
2018-12-26T09:17:13.705Z,83.81
2018-12-26T09:18:15.445Z,83.91
2018-12-26T09:19:13.671Z,84.22
2018-12-26T09:20:13.889Z,84.33
2018-12-26T09:21:12.604Z,84.01
2018-12-26T09:22:13.438Z,85.05
2018-12-26T09:23:13.619Z,84.08
2018-12-26T09:24:14.999Z,84.01
2018-12-26T09:25:34.506Z,83.91
2018-12-26T09:26:20.579Z,84.49
2018-12-26T09:27:14.971Z,83.67
2018-12-26T09:28:31.424Z,83.91
2018-12-26T09:29:13.589Z,83.77
2018-12-26T09:30:17.881Z,83.71
2018-12-26T09:31:12.453Z,84.43
2018-12-26T09:33:07.976Z,83.91
2018-12-26T09:34:09.141Z,83.87
2018-12-26T09:35:36.621Z,83.81
2018-12-26T09:36:05.511Z,84.22
2018-12-26T09:37:09.567Z,83.77
2018-12-26T09:38:10.515Z,84.33
2018-12-26T09:39:09.003Z,83.98
2018-12-26T09:40:06.552Z,84.01
2018-12-26T09:41:10.524Z,84.01
2018-12-26T09:42:26.985Z,84.08
2018-12-26T09:43:05.526Z,83.91
2018-12-26T09:44:07.550Z,84.22
2018-12-26T09:45:08.526Z,83.87
2018-12-26T09:46:06.607Z,83.98
2018-12-26T09:47:08.549Z,83.98
2018-12-26T09:48:05.548Z,84.19
2018-12-26T09:49:22.574Z,85.05
2018-12-26T09:50:17.654Z,83.67
2018-12-26T09:51:18.126Z,84.49
2018-12-26T09:52:17.635Z,84.59
2018-12-26T09:53:07.201Z,84.53
2018-12-26T09:54:07.199Z,83.77
2018-12-26T09:55:08.721Z,84.49
2018-12-26T09:56:05.236Z,83.56
2018-12-26T09:57:06.196Z,83.87
2018-12-26T09:58:06.183Z,84.29
2018-12-26T09:59:10.620Z,84.39
2018-12-26T10:00:08.733Z,84.70
2018-12-26T10:01:11.168Z,84.33
2018-12-26T10:02:08.256Z,84.43
2018-12-26T10:03:08.711Z,84.43
2018-12-26T10:04:05.191Z,84.19
2018-12-26T10:05:05.142Z,84.74
2018-12-26T10:06:08.172Z,84.19
2018-12-26T10:07:04.521Z,84.08
2018-12-26T10:08:07.286Z,84.08
2018-12-26T10:09:05.674Z,84.22
2018-12-26T10:10:07.190Z,83.98
2018-12-26T10:11:12.225Z,84.70
2018-12-26T10:12:12.200Z,83.81
2018-12-26T10:13:07.199Z,84.74
2018-12-26T10:14:14.724Z,85.67
2018-12-26T10:15:10.715Z,84.70
2018-12-26T10:17:15.663Z,85.46
2018-12-26T10:18:17.154Z,85.67
2018-12-26T10:19:37.712Z,85.01
2018-12-26T10:20:11.754Z,84.33
2018-12-26T10:21:13.743Z,84.84
2018-12-26T10:22:20.186Z,85.52
2018-12-26T10:23:15.732Z,85.63
2018-12-26T10:24:11.153Z,85.77
2018-12-26T10:25:12.244Z,85.57
2018-12-26T10:26:12.771Z,85.87
2018-12-26T10:27:13.725Z,85.05
2018-12-26T10:28:14.649Z,85.22
2018-12-26T10:29:13.651Z,85.94
2018-12-26T10:30:12.765Z,84.80
2018-12-26T10:31:15.649Z,84.74
2018-12-26T10:32:13.198Z,85.87
2018-12-26T10:33:15.701Z,85.87
2018-12-26T10:34:19.753Z,85.31
2018-12-26T10:35:16.740Z,85.31
2018-12-26T10:36:12.669Z,85.31
2018-12-26T10:37:11.689Z,85.52
2018-12-26T10:38:12.752Z,85.01
2018-12-26T10:39:11.658Z,85.52
2018-12-26T10:40:14.203Z,84.80
2018-12-26T10:41:14.662Z,85.31
2018-12-26T10:42:11.031Z,85.52
2018-12-26T10:43:13.244Z,85.42
2018-12-26T10:44:13.738Z,85.31
2018-12-26T10:45:20.739Z,85.94
2018-12-26T10:46:16.689Z,84.08
2018-12-26T10:47:11.704Z,84.59
2018-12-26T10:48:27.799Z,84.29
2018-12-26T10:49:17.202Z,84.70
2018-12-26T10:50:17.197Z,85.52
2018-12-26T10:51:11.669Z,85.52
2018-12-26T10:52:11.748Z,85.11
2018-12-26T10:53:14.221Z,85.42
2018-12-26T10:54:38.184Z,85.01
2018-12-26T10:55:15.772Z,85.73
2018-12-26T10:56:14.183Z,84.70
2018-12-26T10:57:20.816Z,85.42
2018-12-26T10:58:20.705Z,85.52
2018-12-26T10:59:17.745Z,85.79
2018-12-26T11:00:16.746Z,85.17
2018-12-26T11:01:14.674Z,85.31
2018-12-26T11:02:19.265Z,85.31
2018-12-26T11:03:35.725Z,85.42
2018-12-26T11:04:35.226Z,85.31
2018-12-26T11:05:12.658Z,85.63
2018-12-26T11:06:18.206Z,85.52
2018-12-26T11:07:15.300Z,84.91
2018-12-26T11:08:10.755Z,85.31
2018-12-26T11:09:17.762Z,85.42
2018-12-26T11:10:12.120Z,85.63
2018-12-26T11:11:12.740Z,85.94
2018-12-26T11:12:26.238Z,85.94
2018-12-26T11:13:13.682Z,85.94
2018-12-26T11:14:11.647Z,86.35
2018-12-26T11:15:12.150Z,85.73
2018-12-26T11:16:11.749Z,85.42
2018-12-26T11:17:12.671Z,85.38
2018-12-26T11:18:15.152Z,85.42
2018-12-26T11:19:12.641Z,85.31
2018-12-26T11:20:14.155Z,85.22
2018-12-26T11:21:14.134Z,85.52
2018-12-26T11:22:15.465Z,85.28
2018-12-26T11:23:20.648Z,85.22
2018-12-26T11:24:11.714Z,85.49
2018-12-26T11:25:16.453Z,85.38
2018-12-26T11:26:12.640Z,85.52
2018-12-26T11:27:14.151Z,85.38
2018-12-26T11:28:14.653Z,85.83
2018-12-26T11:29:32.189Z,85.59
2018-12-26T11:30:11.668Z,85.59
2018-12-26T11:31:16.657Z,85.49
2018-12-26T11:32:15.320Z,84.97
2018-12-26T11:33:25.171Z,85.28
2018-12-26T11:34:11.360Z,85.38
2018-12-26T11:35:10.353Z,85.49
2018-12-26T11:36:12.196Z,85.17
2018-12-26T11:37:10.352Z,85.17
2018-12-26T11:38:10.671Z,85.42
2018-12-26T11:39:10.298Z,84.80
2018-12-26T11:41:05.150Z,85.52
2018-12-26T11:42:05.871Z,85.38
2018-12-26T11:43:04.913Z,85.38
2018-12-26T11:44:03.966Z,85.63
2018-12-26T11:45:04.908Z,85.63
2018-12-26T11:46:17.898Z,85.49
2018-12-26T11:47:04.908Z,85.52
2018-12-26T11:48:26.893Z,85.52
2018-12-26T11:49:02.901Z,85.42
2018-12-26T11:50:04.924Z,85.63
2018-12-26T11:51:13.492Z,85.94
2018-12-26T11:52:09.408Z,85.94
2018-12-26T11:53:04.404Z,85.83
2018-12-26T11:54:03.370Z,86.24
2018-12-26T11:55:04.403Z,85.42
2018-12-26T11:56:03.825Z,85.59
2018-12-26T11:57:02.818Z,85.52
2018-12-26T11:58:08.869Z,86.35
2018-12-26T11:59:04.436Z,85.83
2018-12-26T12:00:03.372Z,86.24
2018-12-26T12:01:06.381Z,85.94
2018-12-26T12:02:02.752Z,86.24
2018-12-26T12:03:05.401Z,86.35
2018-12-26T12:04:04.873Z,87.17
2018-12-26T12:05:19.368Z,86.35
2018-12-26T12:06:05.372Z,86.61
2018-12-26T12:07:05.367Z,86.00
2018-12-26T12:08:02.697Z,86.21
2018-12-26T12:09:06.372Z,87.34
2018-12-26T12:10:05.549Z,86.21
2018-12-26T12:11:10.399Z,87.34
2018-12-26T12:12:02.654Z,86.61
2018-12-26T12:13:23.647Z,87.44
2018-12-26T12:14:05.428Z,86.41
2018-12-26T12:15:24.408Z,86.82
2018-12-26T12:16:02.602Z,85.89
2018-12-26T12:17:02.594Z,86.10
2018-12-26T12:18:07.375Z,85.89
2018-12-26T12:19:04.384Z,87.34
2018-12-26T12:20:02.565Z,86.41
2018-12-26T12:21:05.926Z,86.00
2018-12-26T12:22:17.400Z,87.34
2018-12-26T12:23:05.432Z,87.54
2018-12-26T12:24:02.513Z,87.13
2018-12-26T12:25:04.378Z,87.24
2018-12-26T12:26:23.572Z,86.10
2018-12-26T12:27:10.914Z,87.24
2018-12-26T12:28:02.482Z,87.34
2018-12-26T12:29:07.389Z,86.41
2018-12-26T12:30:04.402Z,86.21
2018-12-26T12:31:24.487Z,87.13
2018-12-26T12:32:14.868Z,86.93
2018-12-26T12:33:29.932Z,87.13
2018-12-26T12:34:03.408Z,87.13
2018-12-26T12:35:04.391Z,87.34
2018-12-26T12:36:06.416Z,87.34
2018-12-26T12:37:18.417Z,87.24
2018-12-26T12:38:04.446Z,86.72
2018-12-26T12:39:06.920Z,87.44
2018-12-26T12:41:01.431Z,87.24
2018-12-26T12:41:56.758Z,86.93
2018-12-26T12:42:57.481Z,86.82
2018-12-26T12:43:59.922Z,87.13
2018-12-26T12:44:59.427Z,87.65
2018-12-26T12:46:03.499Z,87.54
2018-12-26T12:47:00.484Z,86.93
2018-12-26T12:47:58.434Z,87.03
2018-12-26T12:49:00.944Z,87.75
2018-12-26T12:50:02.939Z,87.34
2018-12-26T12:51:26.460Z,87.03
2018-12-26T12:51:58.936Z,87.24
2018-12-26T12:53:01.942Z,87.75
2018-12-26T12:54:34.501Z,87.54
2018-12-26T12:54:56.624Z,87.65
2018-12-26T12:55:58.989Z,87.54
2018-12-26T12:57:01.940Z,87.65
2018-12-26T12:59:11.091Z,87.54
2018-12-26T13:00:12.060Z,87.65
2018-12-26T13:01:20.310Z,88.06
2018-12-26T13:03:05.856Z,87.65